sensor_id;sensor_type;location;lat;lon;timestamp;P1;durP1;ratioP1;P2;durP2;ratioP2
12155;SDS011;6141;49.092;8.516;2024-03-02T00:00:01;9.30;;;8.40;;
12155;SDS011;6141;49.092;8.516;2024-03-02T00:02:57;12.67;;;9.23;;
12155;SDS011;6141;49.092;8.516;2024-03-02T00:05:48;11.37;;;8.97;;
12155;SDS011;6141;49.092;8.516;2024-03-02T00:08:39;11.60;;;8.97;;
12155;SDS011;6141;49.092;8.516;2024-03-02T00:11:28;14.63;;;12.17;;
12155;SDS011;6141;49.092;8.516;2024-03-02T00:14:16;16.53;;;13.10;;
12155;SDS011;6141;49.092;8.516;2024-03-02T00:17:05;14.40;;;11.97;;
12155;SDS011;6141;49.092;8.516;2024-03-02T00:20:06;10.90;;;9.67;;
12155;SDS011;6141;49.092;8.516;2024-03-02T00:22:59;10.27;;;9.13;;
12155;SDS011;6141;49.092;8.516;2024-03-02T00:25:53;12.77;;;9.77;;
12155;SDS011;6141;49.092;8.516;2024-03-02T00:28:42;11.73;;;10.47;;
12155;SDS011;6141;49.092;8.516;2024-03-02T00:31:31;12.73;;;11.27;;
12155;SDS011;6141;49.092;8.516;2024-03-02T00:34:20;13.67;;;11.67;;
12155;SDS011;6141;49.092;8.516;2024-03-02T00:37:09;10.90;;;9.73;;
12155;SDS011;6141;49.092;8.516;2024-03-02T00:39:58;10.13;;;9.13;;
12155;SDS011;6141;49.092;8.516;2024-03-02T00:42:48;13.10;;;10.13;;
12155;SDS011;6141;49.092;8.516;2024-03-02T00:45:38;10.47;;;9.17;;
12155;SDS011;6141;49.092;8.516;2024-03-02T00:48:28;10.53;;;9.23;;
12155;SDS011;6141;49.092;8.516;2024-03-02T00:51:18;10.97;;;9.10;;
12155;SDS011;6141;49.092;8.516;2024-03-02T00:54:08;10.73;;;9.40;;
12155;SDS011;6141;49.092;8.516;2024-03-02T00:56:58;9.47;;;8.47;;
12155;SDS011;6141;49.092;8.516;2024-03-02T00:59:48;9.63;;;8.47;;
12155;SDS011;6141;49.092;8.516;2024-03-02T01:02:36;9.47;;;8.43;;
12155;SDS011;6141;49.092;8.516;2024-03-02T01:05:24;11.33;;;10.13;;
12155;SDS011;6141;49.092;8.516;2024-03-02T01:08:13;12.97;;;10.80;;
12155;SDS011;6141;49.092;8.516;2024-03-02T01:11:02;11.63;;;9.97;;
12155;SDS011;6141;49.092;8.516;2024-03-02T01:13:51;11.53;;;9.47;;
12155;SDS011;6141;49.092;8.516;2024-03-02T01:16:41;10.97;;;8.80;;
12155;SDS011;6141;49.092;8.516;2024-03-02T01:19:30;9.47;;;8.47;;
12155;SDS011;6141;49.092;8.516;2024-03-02T01:22:18;9.93;;;7.90;;
12155;SDS011;6141;49.092;8.516;2024-03-02T01:25:12;11.30;;;8.80;;
12155;SDS011;6141;49.092;8.516;2024-03-02T01:28:00;8.90;;;7.80;;
12155;SDS011;6141;49.092;8.516;2024-03-02T01:30:49;9.63;;;8.33;;
12155;SDS011;6141;49.092;8.516;2024-03-02T01:33:39;9.67;;;8.27;;
12155;SDS011;6141;49.092;8.516;2024-03-02T01:36:27;8.17;;;7.37;;
12155;SDS011;6141;49.092;8.516;2024-03-02T01:39:16;8.70;;;7.70;;
12155;SDS011;6141;49.092;8.516;2024-03-02T01:42:04;9.73;;;8.83;;
12155;SDS011;6141;49.092;8.516;2024-03-02T01:44:53;10.03;;;8.03;;
12155;SDS011;6141;49.092;8.516;2024-03-02T01:47:41;9.60;;;8.23;;
12155;SDS011;6141;49.092;8.516;2024-03-02T01:50:31;10.47;;;8.37;;
12155;SDS011;6141;49.092;8.516;2024-03-02T01:53:20;11.20;;;9.80;;
12155;SDS011;6141;49.092;8.516;2024-03-02T01:56:09;8.60;;;7.73;;
12155;SDS011;6141;49.092;8.516;2024-03-02T01:58:58;8.87;;;8.00;;
12155;SDS011;6141;49.092;8.516;2024-03-02T02:01:46;11.13;;;9.37;;
12155;SDS011;6141;49.092;8.516;2024-03-02T02:04:35;10.97;;;9.00;;
12155;SDS011;6141;49.092;8.516;2024-03-02T02:07:25;10.60;;;8.13;;
12155;SDS011;6141;49.092;8.516;2024-03-02T02:10:13;10.10;;;9.00;;
12155;SDS011;6141;49.092;8.516;2024-03-02T02:13:02;9.17;;;8.17;;
12155;SDS011;6141;49.092;8.516;2024-03-02T02:15:51;10.33;;;8.57;;
12155;SDS011;6141;49.092;8.516;2024-03-02T02:18:40;10.43;;;8.87;;
12155;SDS011;6141;49.092;8.516;2024-03-02T02:21:30;9.20;;;8.20;;
12155;SDS011;6141;49.092;8.516;2024-03-02T02:24:18;9.87;;;8.37;;
12155;SDS011;6141;49.092;8.516;2024-03-02T02:27:06;9.37;;;8.00;;
12155;SDS011;6141;49.092;8.516;2024-03-02T02:29:55;8.43;;;7.40;;
12155;SDS011;6141;49.092;8.516;2024-03-02T02:32:43;8.93;;;7.67;;
12155;SDS011;6141;49.092;8.516;2024-03-02T02:35:32;9.50;;;8.40;;
12155;SDS011;6141;49.092;8.516;2024-03-02T02:38:22;9.60;;;8.53;;
12155;SDS011;6141;49.092;8.516;2024-03-02T02:41:10;11.47;;;8.87;;
12155;SDS011;6141;49.092;8.516;2024-03-02T02:43:59;9.27;;;8.37;;
12155;SDS011;6141;49.092;8.516;2024-03-02T02:46:47;8.50;;;7.60;;
12155;SDS011;6141;49.092;8.516;2024-03-02T02:49:36;9.77;;;8.20;;
12155;SDS011;6141;49.092;8.516;2024-03-02T02:52:25;9.37;;;8.30;;
12155;SDS011;6141;49.092;8.516;2024-03-02T02:55:15;9.27;;;8.10;;
12155;SDS011;6141;49.092;8.516;2024-03-02T02:58:03;7.87;;;7.07;;
12155;SDS011;6141;49.092;8.516;2024-03-02T03:00:52;9.37;;;7.73;;
12155;SDS011;6141;49.092;8.516;2024-03-02T03:03:43;8.00;;;7.13;;
12155;SDS011;6141;49.092;8.516;2024-03-02T03:06:32;7.77;;;6.97;;
12155;SDS011;6141;49.092;8.516;2024-03-02T03:09:20;8.93;;;8.03;;
12155;SDS011;6141;49.092;8.516;2024-03-02T03:12:10;10.77;;;9.20;;
12155;SDS011;6141;49.092;8.516;2024-03-02T03:14:59;12.03;;;9.37;;
12155;SDS011;6141;49.092;8.516;2024-03-02T03:17:47;9.83;;;7.63;;
12155;SDS011;6141;49.092;8.516;2024-03-02T03:20:36;9.47;;;8.47;;
12155;SDS011;6141;49.092;8.516;2024-03-02T03:23:25;8.30;;;7.47;;
12155;SDS011;6141;49.092;8.516;2024-03-02T03:26:13;9.27;;;7.77;;
12155;SDS011;6141;49.092;8.516;2024-03-02T03:29:03;9.03;;;7.33;;
12155;SDS011;6141;49.092;8.516;2024-03-02T03:31:51;9.20;;;7.30;;
12155;SDS011;6141;49.092;8.516;2024-03-02T03:34:40;7.93;;;6.63;;
12155;SDS011;6141;49.092;8.516;2024-03-02T03:37:29;8.13;;;7.27;;
12155;SDS011;6141;49.092;8.516;2024-03-02T03:40:20;8.47;;;7.67;;
12155;SDS011;6141;49.092;8.516;2024-03-02T03:43:09;7.73;;;6.40;;
12155;SDS011;6141;49.092;8.516;2024-03-02T03:45:59;8.67;;;7.40;;
12155;SDS011;6141;49.092;8.516;2024-03-02T03:48:48;8.73;;;7.83;;
12155;SDS011;6141;49.092;8.516;2024-03-02T03:51:36;7.97;;;6.80;;
12155;SDS011;6141;49.092;8.516;2024-03-02T03:54:24;7.37;;;6.63;;
12155;SDS011;6141;49.092;8.516;2024-03-02T03:57:13;9.20;;;8.20;;
12155;SDS011;6141;49.092;8.516;2024-03-02T04:00:02;8.33;;;7.43;;
12155;SDS011;6141;49.092;8.516;2024-03-02T04:03:02;8.97;;;8.07;;
12155;SDS011;6141;49.092;8.516;2024-03-02T04:05:51;10.23;;;8.30;;
12155;SDS011;6141;49.092;8.516;2024-03-02T04:08:41;11.30;;;8.93;;
12155;SDS011;6141;49.092;8.516;2024-03-02T04:11:30;10.50;;;9.40;;
12155;SDS011;6141;49.092;8.516;2024-03-02T04:14:18;8.60;;;7.67;;
12155;SDS011;6141;49.092;8.516;2024-03-02T04:17:06;9.57;;;8.57;;
12155;SDS011;6141;49.092;8.516;2024-03-02T04:19:56;9.73;;;8.73;;
12155;SDS011;6141;49.092;8.516;2024-03-02T04:22:44;10.33;;;8.97;;
12155;SDS011;6141;49.092;8.516;2024-03-02T04:25:33;9.57;;;8.60;;
12155;SDS011;6141;49.092;8.516;2024-03-02T04:28:23;9.27;;;8.37;;
12155;SDS011;6141;49.092;8.516;2024-03-02T04:31:12;9.17;;;8.27;;
12155;SDS011;6141;49.092;8.516;2024-03-02T04:34:00;10.33;;;8.43;;
12155;SDS011;6141;49.092;8.516;2024-03-02T04:36:50;9.33;;;8.07;;
12155;SDS011;6141;49.092;8.516;2024-03-02T04:39:39;9.53;;;8.53;;
12155;SDS011;6141;49.092;8.516;2024-03-02T04:42:27;9.40;;;8.07;;
12155;SDS011;6141;49.092;8.516;2024-03-02T04:45:16;9.47;;;8.57;;
12155;SDS011;6141;49.092;8.516;2024-03-02T04:48:05;10.97;;;7.93;;
12155;SDS011;6141;49.092;8.516;2024-03-02T04:50:54;9.13;;;8.10;;
12155;SDS011;6141;49.092;8.516;2024-03-02T04:53:44;10.47;;;8.30;;
12155;SDS011;6141;49.092;8.516;2024-03-02T04:56:33;9.27;;;8.27;;
12155;SDS011;6141;49.092;8.516;2024-03-02T04:59:31;9.83;;;8.83;;
12155;SDS011;6141;49.092;8.516;2024-03-02T05:02:20;12.33;;;11.07;;
12155;SDS011;6141;49.092;8.516;2024-03-02T05:05:08;14.20;;;10.73;;
12155;SDS011;6141;49.092;8.516;2024-03-02T05:07:57;11.60;;;10.13;;
12155;SDS011;6141;49.092;8.516;2024-03-02T05:10:47;12.37;;;10.97;;
12155;SDS011;6141;49.092;8.516;2024-03-02T05:13:36;10.97;;;9.73;;
12155;SDS011;6141;49.092;8.516;2024-03-02T05:16:24;11.10;;;9.97;;
12155;SDS011;6141;49.092;8.516;2024-03-02T05:19:12;11.40;;;10.17;;
12155;SDS011;6141;49.092;8.516;2024-03-02T05:22:01;10.27;;;8.33;;
12155;SDS011;6141;49.092;8.516;2024-03-02T05:24:49;9.37;;;8.43;;
12155;SDS011;6141;49.092;8.516;2024-03-02T05:27:39;7.73;;;6.93;;
12155;SDS011;6141;49.092;8.516;2024-03-02T05:30:28;9.43;;;8.17;;
12155;SDS011;6141;49.092;8.516;2024-03-02T05:33:16;9.53;;;8.53;;
12155;SDS011;6141;49.092;8.516;2024-03-02T05:36:05;9.90;;;8.40;;
12155;SDS011;6141;49.092;8.516;2024-03-02T05:38:54;9.13;;;8.23;;
12155;SDS011;6141;49.092;8.516;2024-03-02T05:41:42;9.73;;;8.70;;
12155;SDS011;6141;49.092;8.516;2024-03-02T05:44:32;10.53;;;9.50;;
12155;SDS011;6141;49.092;8.516;2024-03-02T05:47:20;10.80;;;8.20;;
12155;SDS011;6141;49.092;8.516;2024-03-02T05:50:09;10.00;;;9.00;;
12155;SDS011;6141;49.092;8.516;2024-03-02T05:52:57;10.03;;;7.20;;
12155;SDS011;6141;49.092;8.516;2024-03-02T05:55:46;8.77;;;7.87;;
12155;SDS011;6141;49.092;8.516;2024-03-02T05:58:40;9.40;;;7.80;;
12155;SDS011;6141;49.092;8.516;2024-03-02T06:01:47;8.57;;;7.67;;
12155;SDS011;6141;49.092;8.516;2024-03-02T06:04:37;9.77;;;8.33;;
12155;SDS011;6141;49.092;8.516;2024-03-02T06:07:25;11.63;;;9.37;;
12155;SDS011;6141;49.092;8.516;2024-03-02T06:10:14;10.73;;;8.67;;
12155;SDS011;6141;49.092;8.516;2024-03-02T06:13:03;9.60;;;8.10;;
12155;SDS011;6141;49.092;8.516;2024-03-02T06:15:51;8.47;;;7.50;;
12155;SDS011;6141;49.092;8.516;2024-03-02T06:18:42;10.20;;;7.83;;
12155;SDS011;6141;49.092;8.516;2024-03-02T06:21:31;8.73;;;6.73;;
12155;SDS011;6141;49.092;8.516;2024-03-02T06:24:20;7.57;;;6.80;;
12155;SDS011;6141;49.092;8.516;2024-03-02T06:27:08;7.60;;;6.87;;
12155;SDS011;6141;49.092;8.516;2024-03-02T06:29:57;7.50;;;6.70;;
12155;SDS011;6141;49.092;8.516;2024-03-02T06:32:46;8.33;;;7.50;;
12155;SDS011;6141;49.092;8.516;2024-03-02T06:35:36;9.30;;;8.40;;
12155;SDS011;6141;49.092;8.516;2024-03-02T06:38:25;9.40;;;7.97;;
12155;SDS011;6141;49.092;8.516;2024-03-02T06:41:14;8.00;;;7.20;;
12155;SDS011;6141;49.092;8.516;2024-03-02T06:44:02;7.63;;;6.83;;
12155;SDS011;6141;49.092;8.516;2024-03-02T06:46:51;7.10;;;6.40;;
12155;SDS011;6141;49.092;8.516;2024-03-02T06:49:39;8.07;;;6.93;;
12155;SDS011;6141;49.092;8.516;2024-03-02T06:52:29;7.73;;;6.63;;
12155;SDS011;6141;49.092;8.516;2024-03-02T06:55:18;7.83;;;7.03;;
12155;SDS011;6141;49.092;8.516;2024-03-02T06:58:06;7.20;;;6.50;;
12155;SDS011;6141;49.092;8.516;2024-03-02T07:00:55;8.60;;;7.10;;
12155;SDS011;6141;49.092;8.516;2024-03-02T07:03:43;9.27;;;7.53;;
12155;SDS011;6141;49.092;8.516;2024-03-02T07:06:32;7.70;;;6.90;;
12155;SDS011;6141;49.092;8.516;2024-03-02T07:09:21;9.63;;;7.03;;
12155;SDS011;6141;49.092;8.516;2024-03-02T07:12:10;8.63;;;7.00;;
12155;SDS011;6141;49.092;8.516;2024-03-02T07:14:59;7.57;;;6.87;;
12155;SDS011;6141;49.092;8.516;2024-03-02T07:18:11;8.73;;;7.47;;
12155;SDS011;6141;49.092;8.516;2024-03-02T07:21:01;8.87;;;7.93;;
12155;SDS011;6141;49.092;8.516;2024-03-02T07:23:50;10.20;;;7.70;;
12155;SDS011;6141;49.092;8.516;2024-03-02T07:26:40;11.10;;;7.57;;
12155;SDS011;6141;49.092;8.516;2024-03-02T07:29:31;9.47;;;8.43;;
12155;SDS011;6141;49.092;8.516;2024-03-02T07:32:20;10.90;;;8.40;;
12155;SDS011;6141;49.092;8.516;2024-03-02T07:35:08;9.77;;;8.87;;
12155;SDS011;6141;49.092;8.516;2024-03-02T07:37:57;9.70;;;8.70;;
12155;SDS011;6141;49.092;8.516;2024-03-02T07:40:45;11.03;;;9.33;;
12155;SDS011;6141;49.092;8.516;2024-03-02T07:43:37;9.80;;;8.70;;
12155;SDS011;6141;49.092;8.516;2024-03-02T07:46:26;11.70;;;10.53;;
12155;SDS011;6141;49.092;8.516;2024-03-02T07:49:15;13.03;;;11.30;;
12155;SDS011;6141;49.092;8.516;2024-03-02T07:52:03;13.13;;;10.50;;
12155;SDS011;6141;49.092;8.516;2024-03-02T07:54:52;11.87;;;10.53;;
12155;SDS011;6141;49.092;8.516;2024-03-02T07:57:41;12.07;;;10.80;;
12155;SDS011;6141;49.092;8.516;2024-03-02T08:00:31;11.80;;;10.60;;
12155;SDS011;6141;49.092;8.516;2024-03-02T08:03:20;11.47;;;10.20;;
12155;SDS011;6141;49.092;8.516;2024-03-02T08:06:09;13.33;;;10.07;;
12155;SDS011;6141;49.092;8.516;2024-03-02T08:09:00;11.57;;;10.37;;
12155;SDS011;6141;49.092;8.516;2024-03-02T08:11:51;14.77;;;13.27;;
12155;SDS011;6141;49.092;8.516;2024-03-02T08:14:40;9.50;;;8.60;;
12155;SDS011;6141;49.092;8.516;2024-03-02T08:17:30;9.47;;;8.57;;
12155;SDS011;6141;49.092;8.516;2024-03-02T08:20:22;10.57;;;9.03;;
12155;SDS011;6141;49.092;8.516;2024-03-02T08:23:11;8.70;;;7.80;;
12155;SDS011;6141;49.092;8.516;2024-03-02T08:26:00;9.80;;;8.80;;
12155;SDS011;6141;49.092;8.516;2024-03-02T08:28:49;8.80;;;8.00;;
12155;SDS011;6141;49.092;8.516;2024-03-02T08:31:37;7.90;;;7.10;;
12155;SDS011;6141;49.092;8.516;2024-03-02T08:34:29;9.30;;;8.40;;
12155;SDS011;6141;49.092;8.516;2024-03-02T08:37:17;8.70;;;7.90;;
12155;SDS011;6141;49.092;8.516;2024-03-02T08:40:06;8.77;;;7.87;;
12155;SDS011;6141;49.092;8.516;2024-03-02T08:42:55;9.13;;;8.23;;
12155;SDS011;6141;49.092;8.516;2024-03-02T08:45:44;10.30;;;9.20;;
12155;SDS011;6141;49.092;8.516;2024-03-02T08:48:34;9.50;;;8.57;;
12155;SDS011;6141;49.092;8.516;2024-03-02T08:51:24;8.53;;;7.73;;
12155;SDS011;6141;49.092;8.516;2024-03-02T08:54:12;7.57;;;6.83;;
12155;SDS011;6141;49.092;8.516;2024-03-02T08:57:01;7.50;;;6.80;;
12155;SDS011;6141;49.092;8.516;2024-03-02T08:59:49;8.00;;;7.20;;
12155;SDS011;6141;49.092;8.516;2024-03-02T09:02:38;7.70;;;7.00;;
12155;SDS011;6141;49.092;8.516;2024-03-02T09:05:26;6.73;;;5.83;;
12155;SDS011;6141;49.092;8.516;2024-03-02T09:08:16;7.10;;;6.40;;
12155;SDS011;6141;49.092;8.516;2024-03-02T09:11:04;6.97;;;6.27;;
12155;SDS011;6141;49.092;8.516;2024-03-02T09:13:54;7.43;;;6.50;;
12155;SDS011;6141;49.092;8.516;2024-03-02T09:16:44;5.90;;;5.30;;
12155;SDS011;6141;49.092;8.516;2024-03-02T09:19:32;6.57;;;5.77;;
12155;SDS011;6141;49.092;8.516;2024-03-02T09:22:21;7.03;;;6.37;;
12155;SDS011;6141;49.092;8.516;2024-03-02T09:25:11;6.87;;;6.27;;
12155;SDS011;6141;49.092;8.516;2024-03-02T09:28:00;6.90;;;6.30;;
12155;SDS011;6141;49.092;8.516;2024-03-02T09:30:50;6.83;;;5.73;;
12155;SDS011;6141;49.092;8.516;2024-03-02T09:33:38;6.33;;;5.70;;
12155;SDS011;6141;49.092;8.516;2024-03-02T09:36:27;7.03;;;6.33;;
12155;SDS011;6141;49.092;8.516;2024-03-02T09:39:15;7.00;;;6.30;;
12155;SDS011;6141;49.092;8.516;2024-03-02T09:42:06;7.90;;;6.77;;
12155;SDS011;6141;49.092;8.516;2024-03-02T09:44:55;7.00;;;6.30;;
12155;SDS011;6141;49.092;8.516;2024-03-02T09:47:44;7.27;;;6.60;;
12155;SDS011;6141;49.092;8.516;2024-03-02T09:50:33;7.23;;;6.47;;
12155;SDS011;6141;49.092;8.516;2024-03-02T09:53:21;7.63;;;6.60;;
12155;SDS011;6141;49.092;8.516;2024-03-02T09:56:11;7.87;;;7.07;;
12155;SDS011;6141;49.092;8.516;2024-03-02T09:59:00;8.70;;;7.20;;
12155;SDS011;6141;49.092;8.516;2024-03-02T10:01:55;7.93;;;7.23;;
12155;SDS011;6141;49.092;8.516;2024-03-02T10:04:46;8.20;;;7.40;;
12155;SDS011;6141;49.092;8.516;2024-03-02T10:07:37;8.80;;;8.00;;
12155;SDS011;6141;49.092;8.516;2024-03-02T10:10:26;8.23;;;7.43;;
12155;SDS011;6141;49.092;8.516;2024-03-02T10:13:26;8.07;;;7.27;;
12155;SDS011;6141;49.092;8.516;2024-03-02T10:16:16;7.90;;;7.03;;
12155;SDS011;6141;49.092;8.516;2024-03-02T10:22:13;7.97;;;7.17;;
12155;SDS011;6141;49.092;8.516;2024-03-02T10:25:02;7.63;;;6.93;;
12155;SDS011;6141;49.092;8.516;2024-03-02T10:28:13;7.40;;;6.70;;
12155;SDS011;6141;49.092;8.516;2024-03-02T10:31:03;7.73;;;6.93;;
12155;SDS011;6141;49.092;8.516;2024-03-02T10:33:55;7.13;;;6.43;;
12155;SDS011;6141;49.092;8.516;2024-03-02T10:36:44;8.37;;;6.23;;
12155;SDS011;6141;49.092;8.516;2024-03-02T10:39:34;6.30;;;5.70;;
12155;SDS011;6141;49.092;8.516;2024-03-02T10:42:23;7.37;;;6.67;;
12155;SDS011;6141;49.092;8.516;2024-03-02T10:45:12;6.10;;;5.50;;
12155;SDS011;6141;49.092;8.516;2024-03-02T10:48:04;5.80;;;5.30;;
12155;SDS011;6141;49.092;8.516;2024-03-02T10:50:55;6.07;;;5.37;;
12155;SDS011;6141;49.092;8.516;2024-03-02T10:53:48;5.87;;;5.27;;
12155;SDS011;6141;49.092;8.516;2024-03-02T10:56:38;5.60;;;5.00;;
12155;SDS011;6141;49.092;8.516;2024-03-02T10:59:28;5.07;;;4.57;;
12155;SDS011;6141;49.092;8.516;2024-03-02T11:02:21;5.37;;;4.37;;
12155;SDS011;6141;49.092;8.516;2024-03-02T11:05:11;5.20;;;4.70;;
12155;SDS011;6141;49.092;8.516;2024-03-02T11:08:06;4.87;;;4.37;;
12155;SDS011;6141;49.092;8.516;2024-03-02T11:10:57;4.50;;;4.10;;
12155;SDS011;6141;49.092;8.516;2024-03-02T11:13:49;4.00;;;3.60;;
12155;SDS011;6141;49.092;8.516;2024-03-02T11:16:38;4.17;;;3.77;;
12155;SDS011;6141;49.092;8.516;2024-03-02T11:19:28;5.40;;;3.43;;
12155;SDS011;6141;49.092;8.516;2024-03-02T11:22:17;3.70;;;3.30;;
12155;SDS011;6141;49.092;8.516;2024-03-02T11:25:09;3.93;;;3.27;;
12155;SDS011;6141;49.092;8.516;2024-03-02T11:28:11;3.90;;;3.30;;
12155;SDS011;6141;49.092;8.516;2024-03-02T11:31:00;3.40;;;3.10;;
12155;SDS011;6141;49.092;8.516;2024-03-02T11:33:48;3.13;;;2.83;;
12155;SDS011;6141;49.092;8.516;2024-03-02T11:36:37;3.50;;;3.20;;
12155;SDS011;6141;49.092;8.516;2024-03-02T11:39:25;4.20;;;3.20;;
12155;SDS011;6141;49.092;8.516;2024-03-02T11:42:15;3.10;;;2.43;;
12155;SDS011;6141;49.092;8.516;2024-03-02T11:45:04;3.00;;;2.70;;
12155;SDS011;6141;49.092;8.516;2024-03-02T11:47:57;3.33;;;2.53;;
12155;SDS011;6141;49.092;8.516;2024-03-02T11:50:47;2.60;;;2.40;;
12155;SDS011;6141;49.092;8.516;2024-03-02T11:53:38;2.50;;;2.30;;
12155;SDS011;6141;49.092;8.516;2024-03-02T11:56:27;3.43;;;2.60;;
12155;SDS011;6141;49.092;8.516;2024-03-02T11:59:18;2.43;;;2.23;;
12155;SDS011;6141;49.092;8.516;2024-03-02T12:02:12;10.07;;;2.70;;
12155;SDS011;6141;49.092;8.516;2024-03-02T12:05:03;3.50;;;2.60;;
12155;SDS011;6141;49.092;8.516;2024-03-02T12:07:55;3.83;;;2.70;;
12155;SDS011;6141;49.092;8.516;2024-03-02T12:10:55;2.90;;;2.10;;
12155;SDS011;6141;49.092;8.516;2024-03-02T12:13:51;2.40;;;1.97;;
12155;SDS011;6141;49.092;8.516;2024-03-02T12:16:44;2.20;;;1.90;;
12155;SDS011;6141;49.092;8.516;2024-03-02T12:19:33;2.93;;;2.20;;
12155;SDS011;6141;49.092;8.516;2024-03-02T12:22:21;3.97;;;2.13;;
12155;SDS011;6141;49.092;8.516;2024-03-02T12:25:10;3.10;;;2.10;;
12155;SDS011;6141;49.092;8.516;2024-03-02T12:27:59;2.53;;;1.90;;
12155;SDS011;6141;49.092;8.516;2024-03-02T12:30:50;3.57;;;2.10;;
12155;SDS011;6141;49.092;8.516;2024-03-02T12:33:40;2.80;;;2.60;;
12155;SDS011;6141;49.092;8.516;2024-03-02T12:36:29;2.07;;;1.87;;
12155;SDS011;6141;49.092;8.516;2024-03-02T12:39:18;3.07;;;2.20;;
12155;SDS011;6141;49.092;8.516;2024-03-02T12:42:07;2.43;;;2.23;;
12155;SDS011;6141;49.092;8.516;2024-03-02T12:44:55;2.33;;;2.00;;
12155;SDS011;6141;49.092;8.516;2024-03-02T12:47:45;2.50;;;2.23;;
12155;SDS011;6141;49.092;8.516;2024-03-02T12:50:34;2.20;;;2.00;;
12155;SDS011;6141;49.092;8.516;2024-03-02T12:53:23;2.43;;;2.23;;
12155;SDS011;6141;49.092;8.516;2024-03-02T12:56:11;2.87;;;2.40;;
12155;SDS011;6141;49.092;8.516;2024-03-02T12:59:00;2.53;;;2.10;;
12155;SDS011;6141;49.092;8.516;2024-03-02T13:01:52;2.30;;;2.10;;
12155;SDS011;6141;49.092;8.516;2024-03-02T13:04:41;2.00;;;1.80;;
12155;SDS011;6141;49.092;8.516;2024-03-02T13:07:31;2.57;;;2.00;;
12155;SDS011;6141;49.092;8.516;2024-03-02T13:10:20;2.17;;;1.90;;
12155;SDS011;6141;49.092;8.516;2024-03-02T13:13:09;2.53;;;2.10;;
12155;SDS011;6141;49.092;8.516;2024-03-02T13:15:57;2.47;;;1.97;;
12155;SDS011;6141;49.092;8.516;2024-03-02T13:18:46;4.00;;;2.13;;
12155;SDS011;6141;49.092;8.516;2024-03-02T13:21:35;3.43;;;2.30;;
12155;SDS011;6141;49.092;8.516;2024-03-02T13:24:25;2.83;;;2.17;;
12155;SDS011;6141;49.092;8.516;2024-03-02T13:27:15;1.83;;;1.50;;
12155;SDS011;6141;49.092;8.516;2024-03-02T13:30:06;2.17;;;1.40;;
12155;SDS011;6141;49.092;8.516;2024-03-02T13:32:56;1.87;;;1.40;;
12155;SDS011;6141;49.092;8.516;2024-03-02T13:35:45;1.73;;;1.47;;
12155;SDS011;6141;49.092;8.516;2024-03-02T13:38:33;2.80;;;1.23;;
12155;SDS011;6141;49.092;8.516;2024-03-02T13:41:23;1.33;;;1.17;;
12155;SDS011;6141;49.092;8.516;2024-03-02T13:44:11;1.40;;;1.30;;
12155;SDS011;6141;49.092;8.516;2024-03-02T13:47:00;1.20;;;1.10;;
12155;SDS011;6141;49.092;8.516;2024-03-02T13:49:49;1.40;;;1.30;;
12155;SDS011;6141;49.092;8.516;2024-03-02T13:52:37;1.90;;;1.23;;
12155;SDS011;6141;49.092;8.516;2024-03-02T13:55:26;1.40;;;1.30;;
12155;SDS011;6141;49.092;8.516;2024-03-02T13:58:16;1.63;;;1.40;;
12155;SDS011;6141;49.092;8.516;2024-03-02T14:01:04;1.37;;;1.20;;
12155;SDS011;6141;49.092;8.516;2024-03-02T14:03:53;1.50;;;1.40;;
12155;SDS011;6141;49.092;8.516;2024-03-02T14:06:42;1.27;;;1.13;;
12155;SDS011;6141;49.092;8.516;2024-03-02T14:09:31;1.90;;;1.30;;
12155;SDS011;6141;49.092;8.516;2024-03-02T14:12:19;3.93;;;1.50;;
12155;SDS011;6141;49.092;8.516;2024-03-02T14:15:10;1.73;;;1.30;;
12155;SDS011;6141;49.092;8.516;2024-03-02T14:17:59;11.93;;;2.83;;
12155;SDS011;6141;49.092;8.516;2024-03-02T14:20:47;6.83;;;2.10;;
12155;SDS011;6141;49.092;8.516;2024-03-02T14:23:39;5.17;;;2.00;;
12155;SDS011;6141;49.092;8.516;2024-03-02T14:26:28;4.67;;;1.73;;
12155;SDS011;6141;49.092;8.516;2024-03-02T14:29:16;1.83;;;1.40;;
12155;SDS011;6141;49.092;8.516;2024-03-02T14:32:06;1.23;;;1.13;;
12155;SDS011;6141;49.092;8.516;2024-03-02T14:34:55;3.30;;;1.67;;
12155;SDS011;6141;49.092;8.516;2024-03-02T14:37:43;1.50;;;1.40;;
12155;SDS011;6141;49.092;8.516;2024-03-02T14:40:32;5.90;;;2.00;;
12155;SDS011;6141;49.092;8.516;2024-03-02T14:43:21;6.40;;;1.40;;
12155;SDS011;6141;49.092;8.516;2024-03-02T14:46:09;4.53;;;1.80;;
12155;SDS011;6141;49.092;8.516;2024-03-02T14:49:00;1.50;;;1.20;;
12155;SDS011;6141;49.092;8.516;2024-03-02T14:51:49;1.73;;;1.60;;
12155;SDS011;6141;49.092;8.516;2024-03-02T14:54:38;1.87;;;1.40;;
12155;SDS011;6141;49.092;8.516;2024-03-02T14:57:26;2.07;;;1.50;;
12155;SDS011;6141;49.092;8.516;2024-03-02T15:00:15;3.70;;;1.47;;
12155;SDS011;6141;49.092;8.516;2024-03-02T15:03:04;2.90;;;1.13;;
12155;SDS011;6141;49.092;8.516;2024-03-02T15:05:56;1.43;;;1.20;;
12155;SDS011;6141;49.092;8.516;2024-03-02T15:08:45;2.40;;;1.10;;
12155;SDS011;6141;49.092;8.516;2024-03-02T15:11:34;1.50;;;1.40;;
12155;SDS011;6141;49.092;8.516;2024-03-02T15:14:22;2.50;;;1.30;;
12155;SDS011;6141;49.092;8.516;2024-03-02T15:17:11;1.60;;;1.50;;
12155;SDS011;6141;49.092;8.516;2024-03-02T15:20:02;2.97;;;1.57;;
12155;SDS011;6141;49.092;8.516;2024-03-02T15:22:55;2.00;;;1.67;;
12155;SDS011;6141;49.092;8.516;2024-03-02T15:25:43;2.40;;;1.60;;
12155;SDS011;6141;49.092;8.516;2024-03-02T15:28:32;2.37;;;2.07;;
12155;SDS011;6141;49.092;8.516;2024-03-02T15:31:20;4.27;;;2.20;;
12155;SDS011;6141;49.092;8.516;2024-03-02T15:34:09;7.33;;;2.80;;
12155;SDS011;6141;49.092;8.516;2024-03-02T15:36:58;3.23;;;1.90;;
12155;SDS011;6141;49.092;8.516;2024-03-02T15:39:49;2.73;;;1.37;;
12155;SDS011;6141;49.092;8.516;2024-03-02T15:42:37;1.53;;;1.10;;
12155;SDS011;6141;49.092;8.516;2024-03-02T15:45:26;1.83;;;1.30;;
12155;SDS011;6141;49.092;8.516;2024-03-02T15:48:20;2.27;;;1.33;;
12155;SDS011;6141;49.092;8.516;2024-03-02T15:51:10;2.07;;;1.40;;
12155;SDS011;6141;49.092;8.516;2024-03-02T15:53:58;2.33;;;1.40;;
12155;SDS011;6141;49.092;8.516;2024-03-02T15:56:48;3.53;;;1.20;;
12155;SDS011;6141;49.092;8.516;2024-03-02T15:59:37;1.33;;;1.13;;
12155;SDS011;6141;49.092;8.516;2024-03-02T16:02:25;3.00;;;1.27;;
12155;SDS011;6141;49.092;8.516;2024-03-02T16:05:14;2.07;;;1.07;;
12155;SDS011;6141;49.092;8.516;2024-03-02T16:08:04;2.50;;;1.20;;
12155;SDS011;6141;49.092;8.516;2024-03-02T16:10:53;1.70;;;1.23;;
12155;SDS011;6141;49.092;8.516;2024-03-02T16:13:43;2.20;;;1.10;;
12155;SDS011;6141;49.092;8.516;2024-03-02T16:16:31;1.53;;;1.43;;
12155;SDS011;6141;49.092;8.516;2024-03-02T16:19:20;2.80;;;1.40;;
12155;SDS011;6141;49.092;8.516;2024-03-02T16:22:18;1.80;;;1.10;;
12155;SDS011;6141;49.092;8.516;2024-03-02T16:25:08;1.30;;;1.20;;
12155;SDS011;6141;49.092;8.516;2024-03-02T16:27:57;2.83;;;1.20;;
12155;SDS011;6141;49.092;8.516;2024-03-02T16:30:49;3.00;;;1.30;;
12155;SDS011;6141;49.092;8.516;2024-03-02T16:33:40;4.43;;;1.30;;
12155;SDS011;6141;49.092;8.516;2024-03-02T16:36:30;4.07;;;1.50;;
12155;SDS011;6141;49.092;8.516;2024-03-02T16:39:21;3.40;;;2.00;;
12155;SDS011;6141;49.092;8.516;2024-03-02T16:42:10;4.07;;;2.07;;
12155;SDS011;6141;49.092;8.516;2024-03-02T16:44:59;2.30;;;2.00;;
12155;SDS011;6141;49.092;8.516;2024-03-02T16:47:49;3.13;;;2.10;;
12155;SDS011;6141;49.092;8.516;2024-03-02T16:50:38;2.10;;;1.70;;
12155;SDS011;6141;49.092;8.516;2024-03-02T16:53:26;2.40;;;1.90;;
12155;SDS011;6141;49.092;8.516;2024-03-02T16:56:14;3.43;;;2.10;;
12155;SDS011;6141;49.092;8.516;2024-03-02T16:59:03;2.20;;;2.00;;
12155;SDS011;6141;49.092;8.516;2024-03-02T17:01:51;3.23;;;1.90;;
12155;SDS011;6141;49.092;8.516;2024-03-02T17:04:41;3.50;;;1.70;;
12155;SDS011;6141;49.092;8.516;2024-03-02T17:07:30;2.30;;;2.07;;
12155;SDS011;6141;49.092;8.516;2024-03-02T17:10:19;2.80;;;1.80;;
12155;SDS011;6141;49.092;8.516;2024-03-02T17:13:07;2.60;;;1.90;;
12155;SDS011;6141;49.092;8.516;2024-03-02T17:15:56;3.50;;;2.10;;